ADDS METAR Data INFO
IDs: Format: Raw Decoded Include TAF

Data at: 2053 UTC 24 Jun 2017

KGTU 242048Z 13008G15KT 10SM CLR 26/19 A3004
KGTU 241950Z 08006KT 10SM CLR 27/19 A3009
KGTU 241850Z 01008KT 10SM CLR 26/19 A3012
KGTU 241750Z 31010KT 10SM CLR 26/19 A3015
KGTU 241650Z 31010G16KT 10SM CLR 24/19 A3017
KGTU 241550Z 31010KT 10SM FEW110 24/20 A3013
KGTU 241450Z 32004KT 10SM FEW075 SCT120 23/19 A3010
KGTU 241350Z 05008G14KT 9SM SCT042 OVC050 22/18 A3009
KGTU 241250Z 05018G27KT 9SM -RA FEW007 SCT012 OVC021 22/18 A3006 RMK LGHT DSNT N
KGTU 241230Z 05018G27KT 6SM RA BKN007 BKN012 OVC017 24/19 A3005
KGTU 241155Z 11005KT 6SM BR BKN009 BKN014 26/23 A3001
KGTU 241152Z 11005KT 6SM BR SCT009 BKN014 26/23 A3001
KGTU 241148Z 11005KT 6SM BR SCT009 SCT014 26/22 A3001
KGTU 241135Z 12005KT 8SM SCT011 26/22 A3001 RMK AO1
KGTU 241115Z 14006KT 9SM FEW009 SCT016 SCT032 26/22 A2999 RMK AO1
KGTU 241055Z 14006KT 10SM SCT014 SCT026 BKN032 26/22 A3000 RMK AO1
KGTU 241035Z 13007KT 10SM SCT014 BKN021 26/22 A2998 RMK AO1
KGTU 241015Z 15005KT 10SM BKN022 27/22 A2998 RMK AO1
KGTU 240955Z 16006KT 10SM SCT017 BKN022 27/22 A2996 RMK AO1
KGTU 240935Z 16007KT 10SM BKN018 27/22 A2994 RMK AO1
KGTU 240915Z 16007KT 10SM BKN016 27/22 A2994 RMK AO1
KGTU 240855Z 18010KT 10SM BKN018 27/22 A2993 RMK AO1 57003
KGTU 240835Z 18005KT 10SM FEW018 27/22 A2994 RMK AO1
KGTU 240815Z 16007KT 10SM CLR 27/22 A2993 RMK AO1
KGTU 240755Z 18009KT 10SM CLR 27/22 A2994 RMK AO1
KGTU 240735Z 17006KT 10SM CLR 28/22 A2994 RMK AO1
KGTU 240715Z 17006KT 10SM CLR 28/22 A2994 RMK AO1
KGTU 240655Z 17008KT 10SM CLR 28/22 A2994 RMK AO1
KGTU 240635Z 17008KT 10SM CLR 28/22 A2995 RMK AO1
KGTU 240615Z 17008KT 10SM CLR 28/22 A2994 RMK AO1
KGTU 240555Z 17008KT 10SM CLR 29/22 A2994 RMK AO1 10380 20290 403900260 52030
KGTU 240535Z 16008KT 10SM CLR 29/21 A2994 RMK AO1
KGTU 240515Z 16008KT 10SM CLR 29/22 A2993 RMK AO1
KGTU 240455Z 15006KT 10SM CLR 30/21 A2992 RMK AO1
KGTU 240435Z 15008KT 120V180 10SM CLR 30/21 A2992 RMK AO1
KGTU 240415Z 15007KT 10SM CLR 31/21 A2991 RMK AO1
KGTU 240355Z 15008KT 10SM CLR 31/21 A2990 RMK AO1
KGTU 240335Z 15010G14KT 10SM CLR 31/21 A2988 RMK AO1
KGTU 240315Z 15009G16KT 10SM CLR 32/21 A2986 RMK AO1
KGTU 240255Z 14008KT 10SM CLR 32/21 A2985 RMK AO1 52027
KGTU 240250Z 13005KT 10SM CLR 33/21 A2985
KGTU 240150Z 13008KT 10SM CLR 34/21 A2981
KGTU 240050Z 12008G15KT 10SM CLR 36/21 A2979
KGTU 232350Z 14007KT 10SM CLR 38/20 A2977
KGTU 232250Z 14007KT 10SM CLR 38/21 A2976
KGTU 232150Z 15011G16KT 10SM CLR 38/20 A2978
KGTU 232050Z 17012G17KT 10SM CLR 37/22 A2979
KGTU 231950Z 17012G17KT 10SM CLR 37/22 A2979
KGTU 231850Z 16010G17KT 10SM CLR 36/22 A2980
KGTU 231750Z 16010G16KT 10SM CLR 35/22 A2981
KGTU 231650Z 18011G17KT 10SM CLR 33/22 A2981
KGTU 231550Z 18012G18KT 10SM CLR 32/22 A2981
KGTU 231450Z 19016KT 10SM CLR 30/21 A2981
KGTU 231350Z 17013G17KT 10SM CLR 28/22 A2980
KGTU 231250Z 17010G14KT 10SM CLR 26/22 A2977
KGTU 231150Z 16008KT 10SM CLR 26/22 A2976
KGTU 231135Z 18008KT 10SM CLR 26/22 A2976 RMK AO1
KGTU 231115Z 17007KT 10SM CLR 26/22 A2975 RMK AO1
KGTU 231055Z 16005KT 10SM CLR 26/22 A2975 RMK AO1
KGTU 231035Z 15005KT 10SM CLR 26/22 A2975 RMK AO1
KGTU 231015Z 16005KT 10SM CLR 26/22 A2975 RMK AO1
KGTU 230955Z 17005KT 10SM CLR 26/22 A2975 RMK AO1
KGTU 230935Z 17006KT 10SM CLR 26/22 A2974 RMK AO1
KGTU 230915Z 16005KT 10SM CLR 26/22 A2975 RMK AO1
KGTU 230855Z 17006KT 10SM CLR 27/22 A2975 RMK AO1 52007


Page loaded:  20:53 UTC  |   01:53 PM Pacific  |   02:53 PM Mountain  |   03:53 PM Central  |   04:53 PM Eastern

 

ADVISORIES

FORECASTS

FORECASTS

OBSERVATIONS

USER TOOLS

ABOUT US